Time;durP1;ratioP1;P1;durP2;ratioP2;P2;SDS_P1;SDS_P2;PMS_P1;PMS_P2;Temp;Humidity;BMP_temperature;BMP_pressure;BME280_temperature;BME280_humidity;BME280_pressure;Samples;Min_cycle;Max_cycle;Signal;HPM_P1;HPM_P2
2021/03/17 00:01:09;;;;;;;6.17;2.50;;;5.80;91.80;;;;;;5058236;28;20496;-78
2021/03/17 00:03:34;;;;;;;4.50;1.93;;;5.80;91.80;;;;;;5074958;28;20408;-78
2021/03/17 00:06:00;;;;;;;3.63;1.67;;;5.80;91.70;;;;;;5075009;28;20025;-79
2021/03/17 00:08:26;;;;;;;4.80;1.87;;;5.80;91.70;;;;;;5058199;28;20490;-79
2021/03/17 00:10:53;;;;;;;4.63;2.23;;;5.80;91.80;;;;;;5057973;28;20032;-78
2021/03/17 00:13:27;;;;;;;5.17;2.23;;;5.80;91.70;;;;;;5076081;28;20081;-79
2021/03/17 00:15:56;;;;;;;5.70;2.13;;;5.70;91.60;;;;;;5075899;28;20377;-79
2021/03/17 00:18:22;;;;;;;6.10;2.37;;;5.60;91.60;;;;;;5074558;28;20119;-79
2021/03/17 00:20:47;;;;;;;4.63;2.53;;;5.60;91.60;;;;;;5057913;28;20116;-79
2021/03/17 00:23:13;;;;;;;4.30;1.90;;;5.60;91.60;;;;;;5058135;28;20450;-79
2021/03/17 00:25:41;;;;;;;4.83;2.10;;;5.50;91.60;;;;;;5071042;28;20476;-80
2021/03/17 00:28:08;;;;;;;4.50;2.53;;;5.50;91.60;;;;;;5074400;28;20387;-79
2021/03/17 00:30:35;;;;;;;5.93;2.63;;;5.40;91.50;;;;;;5075343;28;20025;-79
2021/03/17 00:33:04;;;;;;;5.27;2.67;;;5.40;91.60;;;;;;5074323;28;20495;-79
2021/03/17 00:35:30;;;;;;;4.37;2.37;;;5.30;91.60;;;;;;5074255;28;20051;-79
2021/03/17 00:37:56;;;;;;;6.20;2.57;;;5.30;91.70;;;;;;5074335;28;20028;-79
2021/03/17 00:40:22;;;;;;;5.27;2.77;;;5.30;91.80;;;;;;5075377;28;20548;-79
2021/03/17 00:42:48;;;;;;;7.10;2.73;;;5.20;91.90;;;;;;5072560;28;20059;-79
2021/03/17 00:45:14;;;;;;;4.83;2.37;;;5.20;91.90;;;;;;5057315;28;20052;-79
2021/03/17 00:47:41;;;;;;;5.83;2.53;;;5.30;92.00;;;;;;5053895;28;20108;-79
2021/03/17 00:50:09;;;;;;;6.13;2.67;;;5.20;92.00;;;;;;5054950;28;20032;-79
2021/03/17 00:52:35;;;;;;;5.63;2.67;;;5.20;92.00;;;;;;5073259;28;20094;-79
2021/03/17 00:55:00;;;;;;;5.70;2.40;;;5.20;92.00;;;;;;5057218;28;20032;-79
2021/03/17 00:57:26;;;;;;;6.57;2.77;;;5.20;92.10;;;;;;5075058;28;20047;-78
2021/03/17 00:59:52;;;;;;;6.13;3.37;;;5.20;92.10;;;;;;5073719;28;20060;-79
2021/03/17 01:02:17;;;;;;;6.13;2.67;;;5.20;92.20;;;;;;5059362;28;20477;-79
2021/03/17 01:04:44;;;;;;;6.40;3.00;;;5.20;92.30;;;;;;5053652;28;20044;-78
2021/03/17 01:07:15;;;;;;;5.10;2.63;;;5.10;92.30;;;;;;5053560;28;20365;-78
2021/03/17 01:09:41;;;;;;;6.57;3.23;;;5.20;92.30;;;;;;5053124;28;20430;-79
2021/03/17 01:12:08;;;;;;;6.00;2.90;;;5.20;92.30;;;;;;5037414;28;20120;-78
2021/03/17 01:14:34;;;;;;;6.27;2.80;;;5.20;92.40;;;;;;5036953;28;20093;-79
2021/03/17 01:17:00;;;;;;;6.20;3.07;;;5.20;92.70;;;;;;5054891;28;20481;-78
2021/03/17 01:19:26;;;;;;;6.17;3.20;;;5.20;92.40;;;;;;5053285;28;20123;-79
2021/03/17 01:21:51;;;;;;;5.70;2.67;;;5.20;92.50;;;;;;5064620;28;20385;-79
2021/03/17 01:24:17;;;;;;;5.63;2.73;;;5.20;92.50;;;;;;5074367;28;20033;-79
2021/03/17 01:26:43;;;;;;;6.37;3.30;;;5.30;92.60;;;;;;5073514;28;20090;-79
2021/03/17 01:29:08;;;;;;;5.57;2.43;;;5.30;92.60;;;;;;5073218;28;20417;-78
2021/03/17 01:31:34;;;;;;;6.67;3.40;;;5.20;92.70;;;;;;5065497;28;20423;-78
2021/03/17 01:33:59;;;;;;;6.33;2.97;;;5.20;92.60;;;;;;5053143;28;20573;-79
2021/03/17 01:36:25;;;;;;;4.87;2.63;;;5.20;92.60;;;;;;5036535;28;20063;-79
2021/03/17 01:38:50;;;;;;;4.63;2.53;;;5.20;92.60;;;;;;5052793;28;20449;-79
2021/03/17 01:41:16;;;;;;;4.73;2.80;;;5.20;92.60;;;;;;5036466;28;20045;-78
2021/03/17 01:43:42;;;;;;;6.10;2.63;;;5.20;92.60;;;;;;5053029;28;20029;-79
2021/03/17 01:46:08;;;;;;;6.57;2.73;;;5.20;92.70;;;;;;5052809;28;20032;-79
2021/03/17 01:48:33;;;;;;;5.90;2.90;;;5.20;92.60;;;;;;5052767;28;20033;-78
2021/03/17 01:51:00;;;;;;;5.87;2.77;;;5.20;92.60;;;;;;5055777;28;20123;-78
2021/03/17 01:53:30;;;;;;;4.63;2.60;;;5.20;92.70;;;;;;5073914;28;20032;-78
2021/03/17 01:55:56;;;;;;;4.90;2.63;;;5.30;92.70;;;;;;5073770;28;20024;-78
2021/03/17 01:58:22;;;;;;;5.40;2.70;;;5.30;92.70;;;;;;5072479;28;20024;-78
2021/03/17 02:00:49;;;;;;;5.23;2.93;;;5.20;92.80;;;;;;5071714;28;20029;-78
2021/03/17 02:03:15;;;;;;;6.07;3.30;;;5.20;92.80;;;;;;5056883;28;20035;-79
2021/03/17 02:05:44;;;;;;;6.50;3.57;;;5.20;92.80;;;;;;5072617;28;20392;-78
2021/03/17 02:08:16;;;;;;;5.20;3.10;;;5.20;92.80;;;;;;5073743;28;20448;-78
2021/03/17 02:10:42;;;;;;;6.37;3.47;;;5.30;93.00;;;;;;5072426;28;20029;-77
2021/03/17 02:13:32;;;;;;;6.27;3.40;;;5.20;93.10;;;;;;5053937;28;20384;-77
2021/03/17 02:16:16;;;;;;;8.17;4.27;;;5.30;93.20;;;;;;5052516;28;20144;-77
2021/03/17 02:19:05;;;;;;;6.40;3.47;;;5.30;93.30;;;;;;5052249;28;20033;-77
2021/03/17 02:21:58;;;;;;;6.87;3.90;;;5.30;93.40;;;;;;5057401;28;20024;-78
2021/03/17 02:24:39;;;;;;;7.07;4.17;;;5.30;93.50;;;;;;5071725;28;20119;-74
2021/03/17 02:27:22;;;;;;;8.23;4.57;;;5.30;93.70;;;;;;5073338;28;20021;-74
2021/03/17 02:30:11;;;;;;;6.80;4.10;;;5.30;93.70;;;;;;5072184;28;20430;-74
2021/03/17 02:33:10;;;;;;;8.37;4.30;;;5.30;93.80;;;;;;5057397;28;20049;-75
2021/03/17 02:35:37;;;;;;;8.33;5.17;;;5.20;93.80;;;;;;5053249;28;20114;-74
2021/03/17 02:38:06;;;;;;;7.20;4.30;;;5.30;93.80;;;;;;5053202;28;20048;-74
2021/03/17 02:40:36;;;;;;;9.10;5.00;;;5.30;93.80;;;;;;5051553;28;20451;-74
2021/03/17 02:43:34;;;;;;;7.83;4.57;;;5.30;93.80;;;;;;5069507;28;20131;-74
2021/03/17 02:46:06;;;;;;;7.50;4.30;;;5.30;93.90;;;;;;5070564;28;20400;-74
2021/03/17 02:48:38;;;;;;;7.47;4.47;;;5.30;93.90;;;;;;5072961;28;20036;-74
2021/03/17 02:51:11;;;;;;;7.37;4.30;;;5.30;94.30;;;;;;5071297;28;20025;-74
2021/03/17 02:53:39;;;;;;;7.43;4.20;;;5.30;94.00;;;;;;5051787;28;20025;-74
2021/03/17 02:56:09;;;;;;;8.67;4.57;;;5.30;94.20;;;;;;5051647;28;20115;-75
2021/03/17 02:58:37;;;;;;;7.40;4.30;;;5.30;94.20;;;;;;5051616;28;20055;-75
2021/03/17 03:01:04;;;;;;;7.17;4.03;;;5.40;94.20;;;;;;5051686;28;20089;-74
2021/03/17 03:03:33;;;;;;;7.80;4.30;;;5.40;94.10;;;;;;5084560;28;20028;-74
2021/03/17 03:06:00;;;;;;;6.57;4.17;;;5.40;94.20;;;;;;5051591;28;20483;-74
2021/03/17 03:08:27;;;;;;;8.33;4.17;;;5.40;94.20;;;;;;5052905;28;20026;-74
2021/03/17 03:10:57;;;;;;;7.67;3.83;;;5.40;94.20;;;;;;5051668;28;20057;-74
2021/03/17 03:13:27;;;;;;;6.43;4.00;;;5.40;94.10;;;;;;5052975;28;20083;-74
2021/03/17 03:15:55;;;;;;;7.93;4.43;;;5.40;94.20;;;;;;5051634;28;20032;-78
2021/03/17 03:18:23;;;;;;;7.03;4.00;;;5.40;94.30;;;;;;5051633;28;20095;-78
2021/03/17 03:20:49;;;;;;;6.60;3.67;;;5.40;94.40;;;;;;5051408;28;20029;-78
2021/03/17 03:23:21;;;;;;;6.50;3.93;;;5.40;94.40;;;;;;5068631;28;20103;-78
2021/03/17 03:25:47;;;;;;;7.10;4.07;;;5.50;94.40;;;;;;5071115;28;20472;-78
2021/03/17 03:28:15;;;;;;;6.13;3.47;;;5.40;94.70;;;;;;5072807;28;20040;-78
2021/03/17 03:30:47;;;;;;;6.20;3.43;;;5.50;94.40;;;;;;5072803;28;20051;-78
2021/03/17 03:33:14;;;;;;;7.67;4.03;;;5.50;94.50;;;;;;5075197;28;20041;-78
2021/03/17 03:35:41;;;;;;;7.37;4.30;;;5.50;94.50;;;;;;5058480;28;20036;-77
2021/03/17 03:38:08;;;;;;;7.60;3.97;;;5.50;94.50;;;;;;5075378;28;20476;-78
2021/03/17 03:40:35;;;;;;;7.00;3.87;;;5.50;94.40;;;;;;5067580;28;20568;-78
2021/03/17 03:43:01;;;;;;;5.57;3.73;;;5.60;94.50;;;;;;5055152;28;20032;-79
2021/03/17 03:45:28;;;;;;;8.20;4.20;;;5.60;94.50;;;;;;5038570;28;20088;-79
2021/03/17 03:47:53;;;;;;;5.77;3.67;;;5.60;94.50;;;;;;5056411;28;20485;-78
2021/03/17 03:50:21;;;;;;;7.90;4.47;;;5.50;94.50;;;;;;5038756;28;20049;-78
2021/03/17 03:53:28;;;;;;;6.67;4.03;;;5.60;94.50;;;;;;5054799;28;20021;-78
2021/03/17 03:56:00;;;;;;;5.67;3.30;;;5.60;94.50;;;;;;5057374;28;20032;-78
2021/03/17 03:58:31;;;;;;;7.57;4.80;;;5.60;94.50;;;;;;5058341;28;20472;-77
2021/03/17 04:01:07;;;;;;;6.03;3.83;;;5.60;94.60;;;;;;5067062;28;20035;-78
2021/03/17 04:03:37;;;;;;;5.93;3.37;;;5.60;94.60;;;;;;5074760;28;20024;-77
2021/03/17 04:06:05;;;;;;;8.00;4.23;;;5.60;94.60;;;;;;5074662;28;20166;-77
2021/03/17 04:08:32;;;;;;;9.03;4.30;;;5.60;94.60;;;;;;5074672;28;20016;-77
2021/03/17 04:11:00;;;;;;;7.50;4.70;;;5.60;94.60;;;;;;5054083;28;20033;-77
2021/03/17 04:13:27;;;;;;;8.23;4.43;;;5.60;94.70;;;;;;5058792;28;20067;-77
2021/03/17 04:15:56;;;;;;;6.53;4.20;;;5.50;94.80;;;;;;5054569;28;20029;-77
2021/03/17 04:18:26;;;;;;;6.93;4.53;;;5.60;94.80;;;;;;5054628;28;20040;-77
2021/03/17 04:20:54;;;;;;;5.50;3.70;;;5.60;94.80;;;;;;5063813;28;20029;-77
2021/03/17 04:23:24;;;;;;;6.63;4.13;;;5.60;94.70;;;;;;5075702;28;20046;-77
2021/03/17 04:25:52;;;;;;;7.87;4.07;;;5.60;94.80;;;;;;5075681;28;20021;-78
2021/03/17 04:28:21;;;;;;;7.27;4.27;;;5.60;94.70;;;;;;5074334;28;20383;-77
2021/03/17 04:30:48;;;;;;;7.40;3.77;;;5.60;94.80;;;;;;5074814;28;20025;-78
2021/03/17 04:33:15;;;;;;;5.13;3.13;;;5.60;94.70;;;;;;5075567;28;20039;-78
2021/03/17 04:35:43;;;;;;;6.60;4.30;;;5.70;94.70;;;;;;5074268;28;20024;-77
2021/03/17 04:38:09;;;;;;;6.50;3.70;;;5.70;94.80;;;;;;5074099;28;20032;-79
2021/03/17 04:40:37;;;;;;;7.60;3.97;;;5.70;94.80;;;;;;5066827;28;20131;-78
2021/03/17 04:43:04;;;;;;;7.47;4.07;;;5.70;94.80;;;;;;5055675;28;20522;-79
2021/03/17 04:45:31;;;;;;;5.80;3.67;;;5.70;94.70;;;;;;5053385;28;20392;-79
2021/03/17 04:47:58;;;;;;;8.20;4.30;;;5.70;94.80;;;;;;5055380;28;20029;-80
2021/03/17 04:50:26;;;;;;;8.00;4.03;;;5.70;94.70;;;;;;5058791;28;20067;-79
2021/03/17 04:52:53;;;;;;;7.57;4.03;;;5.60;94.60;;;;;;5075323;28;20024;-79
2021/03/17 04:55:19;;;;;;;6.73;3.33;;;5.70;94.80;;;;;;5075200;28;20117;-79
2021/03/17 04:57:46;;;;;;;6.67;3.60;;;5.70;94.70;;;;;;5057308;28;20028;-79
2021/03/17 05:00:19;;;;;;;7.27;4.00;;;5.70;94.70;;;;;;5070989;28;20048;-80
2021/03/17 05:02:50;;;;;;;6.18;3.75;;;5.70;94.70;;;;;;5071653;28;20376;-79
2021/03/17 05:05:17;;;;;;;6.37;3.90;;;5.70;94.70;;;;;;5072872;28;20367;-78
2021/03/17 05:07:44;;;;;;;6.27;3.87;;;5.70;95.10;;;;;;5072388;28;20353;-77
2021/03/17 05:10:11;;;;;;;7.37;4.07;;;5.70;94.80;;;;;;5071936;28;20020;-77
2021/03/17 05:12:40;;;;;;;6.43;3.23;;;5.70;94.80;;;;;;5053520;28;20423;-77
2021/03/17 05:15:08;;;;;;;6.67;4.43;;;5.70;94.80;;;;;;5053051;28;20028;-77
2021/03/17 05:17:35;;;;;;;6.83;3.63;;;5.70;94.80;;;;;;5053036;28;20078;-78
2021/03/17 05:20:04;;;;;;;6.60;3.80;;;5.70;94.80;;;;;;5054213;28;20017;-78
2021/03/17 05:22:31;;;;;;;5.60;3.27;;;5.70;94.90;;;;;;5074532;28;20089;-77
2021/03/17 05:24:57;;;;;;;5.70;3.53;;;5.70;94.90;;;;;;5074410;28;20051;-77
2021/03/17 05:27:28;;;;;;;6.30;3.13;;;5.70;94.90;;;;;;5073490;28;20025;-77
2021/03/17 05:29:54;;;;;;;5.73;3.33;;;5.70;94.80;;;;;;5072880;28;20379;-78
2021/03/17 05:32:20;;;;;;;7.60;2.97;;;5.80;94.90;;;;;;5072805;28;20028;-78
2021/03/17 05:34:59;;;;;;;10.27;2.73;;;5.90;94.80;;;;;;5074024;28;20082;-78
2021/03/17 05:37:26;;;;;;;5.37;2.53;;;5.80;94.90;;;;;;5074272;28;20028;-77
2021/03/17 05:39:52;;;;;;;5.50;2.67;;;5.70;94.80;;;;;;5072924;28;20056;-80
2021/03/17 05:42:18;;;;;;;5.93;3.00;;;5.80;94.80;;;;;;5072270;28;20123;-80
2021/03/17 05:44:44;;;;;;;4.27;2.20;;;5.80;94.80;;;;;;5056138;28;20119;-79
2021/03/17 05:47:11;;;;;;;4.03;1.83;;;5.80;94.80;;;;;;5074093;28;20025;-80
2021/03/17 05:49:38;;;;;;;4.27;2.03;;;5.80;94.70;;;;;;5072895;28;20028;-79
2021/03/17 05:52:06;;;;;;;3.87;2.00;;;5.80;94.70;;;;;;5055498;28;20377;-79
2021/03/17 05:54:31;;;;;;;4.23;2.33;;;5.80;94.60;;;;;;5054430;28;20025;-78
2021/03/17 05:56:57;;;;;;;5.77;2.10;;;5.80;94.60;;;;;;5063344;28;20108;-79
2021/03/17 05:59:23;;;;;;;4.20;1.70;;;5.80;94.60;;;;;;5063207;28;20035;-79
2021/03/17 06:01:50;;;;;;;3.83;2.07;;;5.80;94.60;;;;;;5067463;28;20111;-80
2021/03/17 06:04:17;;;;;;;4.07;1.97;;;5.80;94.50;;;;;;5073302;28;20476;-79
2021/03/17 06:06:44;;;;;;;6.17;2.20;;;5.80;94.50;;;;;;5045977;28;20017;-79
2021/03/17 06:09:10;;;;;;;4.60;1.87;;;5.80;94.50;;;;;;5052275;28;20476;-79
2021/03/17 06:11:36;;;;;;;5.00;1.70;;;5.80;94.40;;;;;;5068234;28;20028;-80
2021/03/17 06:14:07;;;;;;;4.67;1.97;;;5.80;94.40;;;;;;5065399;28;20028;-80
2021/03/17 06:16:37;;;;;;;5.77;1.67;;;5.80;94.40;;;;;;5054954;28;20075;-77
2021/03/17 06:19:04;;;;;;;4.50;2.13;;;5.80;94.30;;;;;;5072282;28;20044;-80
2021/03/17 06:21:30;;;;;;;6.10;2.10;;;5.80;94.30;;;;;;5065135;28;20111;-79
2021/03/17 06:23:58;;;;;;;4.67;2.20;;;5.90;94.30;;;;;;5073228;28;20048;-80
2021/03/17 06:26:24;;;;;;;5.97;1.90;;;5.80;94.20;;;;;;5071459;28;20353;-80
2021/03/17 06:28:50;;;;;;;3.53;1.67;;;5.90;94.20;;;;;;5061448;28;20024;-79
2021/03/17 06:31:16;;;;;;;4.57;2.00;;;5.90;94.20;;;;;;5053600;28;20032;-80
2021/03/17 06:33:42;;;;;;;4.20;2.07;;;6.00;94.20;;;;;;5052022;28;20017;-79
2021/03/17 06:36:19;;;;;;;5.13;1.97;;;5.90;94.20;;;;;;5054606;28;20016;-77
2021/03/17 06:38:46;;;;;;;4.47;2.10;;;5.90;94.20;;;;;;5058555;28;20013;-78
2021/03/17 06:41:16;;;;;;;4.60;1.87;;;5.90;94.20;;;;;;5076072;28;20037;-79
2021/03/17 06:43:42;;;;;;;5.93;2.47;;;5.90;94.20;;;;;;5065307;28;20032;-79
2021/03/17 06:46:10;;;;;;;4.73;2.27;;;5.90;94.20;;;;;;5061601;28;20028;-78
2021/03/17 06:48:38;;;;;;;4.70;2.37;;;5.90;94.20;;;;;;5060832;28;20550;-78
2021/03/17 06:51:15;;;;;;;4.13;1.77;;;6.00;94.20;;;;;;5068939;28;20117;-79
2021/03/17 06:53:45;;;;;;;3.57;1.87;;;6.00;94.10;;;;;;5055129;28;20032;-78
2021/03/17 06:56:13;;;;;;;4.20;2.03;;;6.00;94.10;;;;;;5073233;28;20016;-78
2021/03/17 06:58:50;;;;;;;6.57;2.40;;;6.00;94.10;;;;;;5055684;28;20043;-79
2021/03/17 07:01:43;;;;;;;4.50;2.10;;;6.10;94.10;;;;;;5058375;28;20021;-78
2021/03/17 07:04:18;;;;;;;5.77;1.97;;;6.20;94.10;;;;;;5069053;28;20052;-78
2021/03/17 07:06:46;;;;;;;4.00;1.90;;;6.20;94.00;;;;;;5071779;28;20371;-78
2021/03/17 07:09:19;;;;;;;3.80;1.50;;;6.20;93.80;;;;;;5079358;28;20025;-79
2021/03/17 07:11:50;;;;;;;2.23;1.07;;;6.20;93.80;;;;;;5069073;28;20033;-74
2021/03/17 07:14:24;;;;;;;4.60;1.30;;;6.30;93.80;;;;;;5075045;28;20033;-74
2021/03/17 07:16:50;;;;;;;6.00;1.58;;;6.20;93.80;;;;;;5075217;28;20115;-73
2021/03/17 07:19:38;;;;;;;2.90;1.23;;;6.30;93.80;;;;;;5060364;28;20108;-78
2021/03/17 07:22:05;;;;;;;3.90;1.10;;;6.30;93.70;;;;;;5056745;28;20100;-78
2021/03/17 07:24:31;;;;;;;3.47;1.47;;;6.40;93.50;;;;;;5053723;28;20029;-80
2021/03/17 07:27:15;;;;;;;2.00;0.77;;;6.50;93.50;;;;;;5074784;28;20023;-73
2021/03/17 07:29:41;;;;;;;2.78;1.00;;;6.60;93.50;;;;;;5075276;28;20028;-73
2021/03/17 07:32:07;;;;;;;2.90;1.40;;;6.60;93.50;;;;;;5075174;28;20037;-72
2021/03/17 07:34:34;;;;;;;2.47;1.10;;;6.70;93.40;;;;;;5076030;28;20112;-74
2021/03/17 07:37:02;;;;;;;2.67;0.90;;;6.80;93.30;;;;;;5056566;28;20119;-73
2021/03/17 07:39:38;;;;;;;2.87;0.80;;;6.90;92.80;;;;;;5055123;28;20032;-74
2021/03/17 07:42:06;;;;;;;2.33;0.80;;;6.90;92.90;;;;;;5056254;28;20036;-74
2021/03/17 07:44:35;;;;;;;1.80;0.80;;;7.00;92.50;;;;;;5070454;28;20031;-74
2021/03/17 07:47:03;;;;;;;4.87;1.40;;;7.00;92.20;;;;;;5070636;28;20471;-74
2021/03/17 07:49:29;;;;;;;3.80;0.90;;;7.00;91.90;;;;;;5075423;28;20051;-73
2021/03/17 07:52:00;;;;;;;1.70;0.80;;;7.00;91.90;;;;;;5074843;28;20029;-73
2021/03/17 07:54:32;;;;;;;3.47;0.80;;;7.10;91.80;;;;;;5074641;28;20480;-74
2021/03/17 07:56:59;;;;;;;3.40;0.60;;;7.10;91.30;;;;;;5075491;28;20029;-75
2021/03/17 07:59:26;;;;;;;4.33;0.70;;;7.00;91.20;;;;;;5058122;28;20036;-75
2021/03/17 08:01:54;;;;;;;1.10;0.50;;;7.00;90.70;;;;;;5074417;28;20111;-75
2021/03/17 08:04:32;;;;;;;2.20;0.60;;;7.10;91.20;;;;;;5072652;28;20020;-74
2021/03/17 08:07:02;;;;;;;1.93;0.50;;;7.20;90.90;;;;;;5074655;28;20036;-75
2021/03/17 08:09:28;;;;;;;2.27;0.60;;;7.30;91.00;;;;;;5075861;28;20469;-75
2021/03/17 08:12:02;;;;;;;1.87;0.50;;;7.30;91.10;;;;;;5053559;28;20035;-75
2021/03/17 08:14:29;;;;;;;3.20;0.40;;;7.40;91.30;;;;;;5062231;28;20508;-74
2021/03/17 08:16:55;;;;;;;0.93;0.50;;;7.60;91.50;;;;;;5064466;28;20032;-75
2021/03/17 08:19:26;;;;;;;2.83;0.50;;;7.70;91.10;;;;;;5069383;28;20499;-75
2021/03/17 08:21:59;;;;;;;6.50;0.90;;;7.90;91.00;;;;;;5066643;28;20066;-74
2021/03/17 08:24:40;;;;;;;4.53;0.43;;;8.00;90.60;;;;;;5064448;28;20095;-74
2021/03/17 08:27:08;;;;;;;4.70;0.70;;;8.00;88.50;;;;;;5064019;28;20028;-75
2021/03/17 08:29:42;;;;;;;3.83;0.70;;;7.90;87.70;;;;;;5065425;28;20067;-75
2021/03/17 08:32:09;;;;;;;4.38;0.63;;;7.90;86.30;;;;;;5062905;28;20021;-75
2021/03/17 08:34:36;;;;;;;5.47;0.77;;;7.90;86.10;;;;;;5069874;28;20017;-74
2021/03/17 08:37:09;;;;;;;3.73;0.60;;;7.90;86.00;;;;;;5046221;28;20032;-74
2021/03/17 08:39:41;;;;;;;1.75;0.40;;;7.90;85.70;;;;;;5045591;28;20553;-75
2021/03/17 08:42:10;;;;;;;3.40;0.47;;;8.00;86.00;;;;;;5062658;28;20031;-74
2021/03/17 08:44:39;;;;;;;1.73;0.70;;;7.90;85.60;;;;;;5071049;28;20021;-75
2021/03/17 08:47:27;;;;;;;8.80;0.80;;;7.90;85.40;;;;;;5055841;28;20040;-74
2021/03/17 08:49:56;;;;;;;5.60;0.60;;;7.90;84.80;;;;;;5054521;28;20085;-74
2021/03/17 08:52:36;;;;;;;5.70;0.60;;;8.00;83.70;;;;;;5054794;28;20120;-75
2021/03/17 08:55:08;;;;;;;6.77;1.10;;;8.00;83.80;;;;;;5052577;28;20059;-74
2021/03/17 08:57:49;;;;;;;4.23;0.70;;;8.10;83.80;;;;;;5053495;28;20056;-75
2021/03/17 09:00:43;;;;;;;4.77;0.70;;;8.10;84.10;;;;;;5056066;28;20041;-75
2021/03/17 09:03:29;;;;;;;2.78;0.60;;;8.20;83.80;;;;;;5053570;28;20087;-75
2021/03/17 09:06:08;;;;;;;4.40;0.70;;;8.10;84.20;;;;;;5072335;28;20485;-74
2021/03/17 09:09:16;;;;;;;2.63;0.60;;;8.10;83.50;;;;;;5074945;28;20025;-77
2021/03/17 09:11:48;;;;;;;4.33;0.60;;;8.00;84.00;;;;;;5073812;28;20428;-77
2021/03/17 09:14:23;;;;;;;2.47;0.50;;;8.00;84.40;;;;;;5073781;28;20029;-77
2021/03/17 09:17:26;;;;;;;6.00;0.60;;;8.10;84.10;;;;;;5057399;28;20036;-78
2021/03/17 09:20:06;;;;;;;2.40;0.53;;;7.90;83.90;;;;;;5042805;28;20389;-77
2021/03/17 09:22:58;;;;;;;4.13;0.50;;;7.90;82.60;;;;;;5054670;28;20013;-77
2021/03/17 09:25:23;;;;;;;2.37;0.50;;;7.80;82.50;;;;;;5054655;28;20029;-77
2021/03/17 09:27:56;;;;;;;5.67;0.60;;;7.70;83.00;;;;;;5054234;28;20503;-77
2021/03/17 09:30:25;;;;;;;4.17;0.70;;;7.80;83.80;;;;;;5060630;28;20476;-78
2021/03/17 09:33:03;;;;;;;10.20;1.30;;;7.80;84.50;;;;;;5054283;28;20021;-78
2021/03/17 09:35:31;;;;;;;4.87;0.80;;;7.90;85.40;;;;;;5059671;28;20056;-78
2021/03/17 09:38:06;;;;;;;8.63;0.70;;;7.90;85.40;;;;;;5063959;28;20464;-78
2021/03/17 09:40:39;;;;;;;3.47;0.80;;;7.90;86.10;;;;;;5060102;28;20118;-78
2021/03/17 09:43:25;;;;;;;2.28;0.50;;;8.00;85.60;;;;;;5055190;28;20550;-79
2021/03/17 09:45:51;;;;;;;4.87;0.57;;;8.00;84.80;;;;;;5052837;28;20103;-78
2021/03/17 09:48:17;;;;;;;4.33;0.50;;;8.10;84.50;;;;;;5052729;28;20167;-78
2021/03/17 09:50:44;;;;;;;4.63;0.80;;;8.10;84.70;;;;;;5054191;28;20043;-79
2021/03/17 09:53:16;;;;;;;6.33;1.47;;;8.20;83.90;;;;;;5061741;28;20030;-78
2021/03/17 09:55:42;;;;;;;4.30;0.63;;;8.20;83.70;;;;;;5062269;28;20024;-79
2021/03/17 09:58:09;;;;;;;5.37;0.70;;;8.30;82.70;;;;;;5060589;28;20037;-79
2021/03/17 10:00:36;;;;;;;4.90;1.03;;;8.30;82.60;;;;;;5065300;28;20116;-78
2021/03/17 10:03:05;;;;;;;5.90;0.57;;;8.50;82.20;;;;;;5052475;28;20033;-78
2021/03/17 10:05:31;;;;;;;3.87;0.67;;;8.60;81.20;;;;;;5053870;28;20436;-79
2021/03/17 10:07:58;;;;;;;3.70;0.63;;;8.80;80.50;;;;;;5059360;28;20033;-80
2021/03/17 10:10:24;;;;;;;4.17;0.50;;;8.90;77.40;;;;;;5064911;28;20035;-80
2021/03/17 10:12:50;;;;;;;4.07;0.50;;;9.00;76.40;;;;;;5065993;28;20032;-79
2021/03/17 10:15:21;;;;;;;2.77;0.50;;;9.00;76.70;;;;;;5073452;28;20280;-78
2021/03/17 10:17:47;;;;;;;4.17;0.60;;;9.00;77.00;;;;;;5065656;28;20031;-79
2021/03/17 10:20:16;;;;;;;1.60;0.40;;;9.00;76.30;;;;;;5068576;28;20021;-78
2021/03/17 10:22:44;;;;;;;4.70;0.60;;;9.00;76.00;;;;;;5063850;28;20016;-79
2021/03/17 10:25:15;;;;;;;3.47;0.50;;;9.00;75.80;;;;;;5060721;28;20108;-78
2021/03/17 10:27:53;;;;;;;4.80;0.60;;;9.10;76.10;;;;;;5071925;28;20031;-78
2021/03/17 10:30:27;;;;;;;2.27;0.40;;;9.50;77.40;;;;;;5053397;28;20059;-78
2021/03/17 10:32:55;;;;;;;10.02;1.20;;;9.70;77.80;;;;;;5066665;28;20028;-79
2021/03/17 10:35:21;;;;;;;3.40;0.50;;;9.80;75.60;;;;;;5072875;28;20491;-78
2021/03/17 10:37:48;;;;;;;5.17;0.53;;;9.90;74.60;;;;;;5072198;28;20040;-78
2021/03/17 10:40:22;;;;;;;3.30;0.73;;;9.90;74.10;;;;;;5064029;28;20435;-78
2021/03/17 10:42:52;;;;;;;5.18;0.88;;;9.90;72.80;;;;;;5060410;28;20020;-79
2021/03/17 10:45:23;;;;;;;4.53;0.73;;;9.90;71.10;;;;;;5071232;28;20035;-79
2021/03/17 10:47:50;;;;;;;2.57;0.60;;;9.80;71.00;;;;;;5070263;28;20384;-80
2021/03/17 10:50:29;;;;;;;4.30;0.60;;;9.70;70.40;;;;;;5055202;28;20439;-79
2021/03/17 10:52:55;;;;;;;7.10;0.63;;;9.60;70.10;;;;;;5064385;28;20044;-78
2021/03/17 10:55:29;;;;;;;3.47;0.60;;;9.60;70.50;;;;;;5073311;28;20039;-78
2021/03/17 10:58:11;;;;;;;5.38;0.50;;;9.60;70.60;;;;;;5071720;28;20039;-78
2021/03/17 11:00:37;;;;;;;6.90;0.60;;;9.50;70.50;;;;;;5052655;28;20021;-80
2021/03/17 11:03:20;;;;;;;6.00;0.83;;;9.50;69.90;;;;;;5060667;28;20032;-78
2021/03/17 11:05:46;;;;;;;3.27;0.50;;;9.50;69.10;;;;;;5063463;28;20546;-78
2021/03/17 11:08:11;;;;;;;5.53;0.80;;;9.60;69.80;;;;;;5036355;28;20057;-78
2021/03/17 11:10:49;;;;;;;4.40;0.60;;;9.70;69.80;;;;;;5059509;28;20384;-78
2021/03/17 11:13:16;;;;;;;4.37;0.50;;;9.70;69.30;;;;;;5065377;28;20017;-78
2021/03/17 11:15:46;;;;;;;7.00;0.53;;;9.60;67.90;;;;;;5065336;28;20032;-78
2021/03/17 11:18:22;;;;;;;6.17;0.70;;;9.50;67.80;;;;;;5067379;28;20480;-79
2021/03/17 11:20:49;;;;;;;4.33;0.50;;;9.40;68.70;;;;;;5071623;28;20025;-78
2021/03/17 11:23:16;;;;;;;4.63;0.73;;;9.20;68.60;;;;;;5051430;28;20021;-78
2021/03/17 11:25:42;;;;;;;6.73;1.50;;;9.00;68.60;;;;;;5035028;28;20017;-78
2021/03/17 11:28:16;;;;;;;5.23;0.50;;;9.10;69.50;;;;;;5054604;28;20364;-78
2021/03/17 11:30:43;;;;;;;;;;;9.20;70.10;;;;;;5071350;28;20443;-80
2021/03/17 11:33:13;;;;;;;4.63;0.53;;;9.50;70.90;;;;;;5061977;28;19956;-78
2021/03/17 11:35:44;;;;;;;5.20;0.90;;;9.90;71.30;;;;;;5058063;28;20029;-78
2021/03/17 11:38:10;;;;;;;4.90;0.80;;;10.30;71.10;;;;;;5059449;28;20037;-78
2021/03/17 11:40:37;;;;;;;4.20;0.50;;;10.60;70.70;;;;;;5071831;28;20051;-79
2021/03/17 11:43:11;;;;;;;3.77;0.60;;;10.90;69.70;;;;;;5069289;28;20103;-79
2021/03/17 11:45:37;;;;;;;4.90;0.73;;;11.10;69.10;;;;;;5062279;28;20464;-79
2021/03/17 11:48:03;;;;;;;3.83;0.50;;;11.20;68.30;;;;;;5059068;28;20029;-78
2021/03/17 11:50:29;;;;;;;4.40;0.60;;;11.10;67.80;;;;;;5043336;28;20055;-79
2021/03/17 11:52:55;;;;;;;6.50;0.90;;;11.10;68.10;;;;;;5048780;28;20503;-78
2021/03/17 11:55:21;;;;;;;2.90;0.63;;;10.90;68.20;;;;;;5072058;28;20040;-78
2021/03/17 11:57:47;;;;;;;3.10;0.53;;;10.80;67.70;;;;;;5054355;28;20029;-79
2021/03/17 12:00:14;;;;;;;6.53;0.73;;;10.60;67.50;;;;;;5067492;28;20093;-78
2021/03/17 12:02:40;;;;;;;4.83;0.83;;;10.40;68.50;;;;;;5075311;28;20028;-80
2021/03/17 12:05:07;;;;;;;1.53;0.33;;;10.20;69.20;;;;;;5058388;28;20024;-78
2021/03/17 12:07:33;;;;;;;4.90;0.53;;;10.10;69.40;;;;;;5057875;28;20232;-80
2021/03/17 12:09:59;;;;;;;5.53;0.83;;;9.90;69.80;;;;;;5075824;28;20028;-79
2021/03/17 12:12:25;;;;;;;3.90;0.37;;;9.70;70.10;;;;;;5073604;28;20046;-78
2021/03/17 12:14:50;;;;;;;4.37;0.60;;;9.60;70.40;;;;;;5052101;28;20040;-78
2021/03/17 12:17:16;;;;;;;2.93;0.47;;;9.50;70.80;;;;;;5053133;28;20420;-78
2021/03/17 12:19:41;;;;;;;3.13;0.70;;;9.40;71.70;;;;;;5053986;28;20492;-74
2021/03/17 12:22:07;;;;;;;2.53;0.47;;;9.40;72.80;;;;;;5020295;28;20034;-74
2021/03/17 12:24:33;;;;;;;10.07;0.57;;;9.30;73.50;;;;;;5057109;28;20475;-78
2021/03/17 12:26:58;;;;;;;4.93;0.50;;;9.30;73.70;;;;;;5056804;28;20076;-78
2021/03/17 12:29:24;;;;;;;3.30;0.60;;;9.30;73.80;;;;;;5040674;28;20082;-77
2021/03/17 12:31:49;;;;;;;2.53;0.60;;;9.30;74.00;;;;;;5062860;28;20488;-78
2021/03/17 12:34:15;;;;;;;2.30;0.50;;;9.30;74.00;;;;;;5066166;28;20082;-77
2021/03/17 12:36:41;;;;;;;5.93;0.53;;;9.30;74.50;;;;;;5048051;28;20037;-78
2021/03/17 12:39:06;;;;;;;4.40;0.53;;;9.40;75.00;;;;;;5055558;28;20029;-78
2021/03/17 12:41:32;;;;;;;3.87;0.40;;;9.40;74.90;;;;;;5062934;28;20488;-77
2021/03/17 12:43:58;;;;;;;1.63;0.37;;;9.50;75.20;;;;;;5050280;28;20017;-78
2021/03/17 12:46:24;;;;;;;6.83;0.50;;;9.50;75.20;;;;;;5066020;28;20021;-77
2021/03/17 12:48:49;;;;;;;5.03;0.50;;;9.60;75.10;;;;;;5057893;28;20021;-77
2021/03/17 12:51:15;;;;;;;2.87;0.50;;;9.50;74.50;;;;;;5073431;28;20128;-77
2021/03/17 12:53:41;;;;;;;3.77;0.40;;;9.50;74.30;;;;;;5065858;28;20083;-77
2021/03/17 12:56:07;;;;;;;3.17;0.40;;;9.40;74.70;;;;;;5063556;28;20040;-77
2021/03/17 12:58:33;;;;;;;1.20;0.33;;;9.40;75.50;;;;;;5048453;28;20116;-78
2021/03/17 13:01:00;;;;;;;1.20;0.40;;;9.40;75.80;;;;;;5062520;28;20158;-77
2021/03/17 13:03:25;;;;;;;1.80;0.30;;;9.30;76.40;;;;;;5064642;28;20464;-77
2021/03/17 13:05:51;;;;;;;4.93;0.47;;;9.30;76.90;;;;;;5062403;28;20112;-78
2021/03/17 13:08:17;;;;;;;4.43;0.50;;;9.20;77.70;;;;;;5062303;28;20020;-77
2021/03/17 13:10:43;;;;;;;3.37;0.40;;;9.10;77.80;;;;;;5061955;28;20025;-77